createdAt,value
2023-02-17T00:00:22.402Z,98988.81
2023-02-17T00:02:25.637Z,98987.13
2023-02-17T00:04:29.229Z,98981.00
2023-02-17T00:06:33.813Z,98982.63
2023-02-17T00:08:37.376Z,98976.53
2023-02-17T00:10:40.493Z,98971.28
2023-02-17T00:12:43.634Z,98979.09
2023-02-17T00:14:57.838Z,98979.78
2023-02-17T00:17:00.918Z,98972.59
2023-02-17T00:19:24.873Z,98961.13
2023-02-17T00:21:30.671Z,98954.34
2023-02-17T00:23:33.745Z,98953.25
2023-02-17T00:25:38.505Z,98953.25
2023-02-17T00:27:41.635Z,98954.03
2023-02-17T00:29:45.017Z,98948.91
2023-02-17T00:31:49.707Z,98954.94
2023-02-17T00:33:55.353Z,98958.13
2023-02-17T00:35:58.395Z,98951.75
2023-02-17T00:38:01.418Z,98962.03
2023-02-17T00:40:05.026Z,98966.91
2023-02-17T00:42:10.080Z,98963.91
2023-02-17T00:44:17.319Z,98962.72
2023-02-17T00:46:20.731Z,98966.19
2023-02-17T00:48:25.532Z,98963.75
2023-02-17T00:50:28.634Z,98963.56
2023-02-17T00:52:31.879Z,98961.22
2023-02-17T00:54:34.954Z,98950.94
2023-02-17T00:56:38.468Z,98947.56
2023-02-17T00:58:42.636Z,98958.63
2023-02-17T01:00:45.712Z,98963.66
2023-02-17T01:02:48.808Z,98959.94
2023-02-17T01:04:54.679Z,98966.03
2023-02-17T01:06:57.904Z,98960.88
2023-02-17T01:09:01.063Z,98967.34
2023-02-17T01:11:04.318Z,98958.06
2023-02-17T01:13:09.422Z,98956.66
2023-02-17T01:15:12.947Z,98954.13
2023-02-17T01:17:16.083Z,98960.16
2023-02-17T01:19:20.025Z,98949.75
2023-02-17T01:21:28.967Z,98953.81
2023-02-17T01:23:32.100Z,98954.47
2023-02-17T01:25:38.308Z,98957.00
2023-02-17T01:27:41.645Z,98949.19
2023-02-17T01:29:45.470Z,98948.09
2023-02-17T01:31:48.601Z,98940.78
2023-02-17T01:33:51.797Z,98943.13
2023-02-17T01:35:54.911Z,98937.66
2023-02-17T01:37:59.351Z,98940.94
2023-02-17T01:40:02.739Z,98935.47
2023-02-17T01:42:08.067Z,98937.16
2023-02-17T01:44:16.658Z,98933.53
2023-02-17T01:46:19.794Z,98929.84
2023-02-17T01:48:24.260Z,98928.16
2023-02-17T01:50:31.566Z,98924.44
2023-02-17T01:52:34.681Z,98927.63
2023-02-17T01:54:43.335Z,98923.13
2023-02-17T01:56:48.367Z,98919.47
2023-02-17T01:58:55.678Z,98913.25
2023-02-17T02:01:00.931Z,98909.72
2023-02-17T02:03:05.690Z,98906.94
2023-02-17T02:05:09.262Z,98911.97
2023-02-17T02:07:31.242Z,98910.22
2023-02-17T02:10:15.753Z,98913.81
2023-02-17T02:12:35.513Z,98909.34
2023-02-17T02:23:03.833Z,98898.66
2023-02-17T02:25:16.049Z,98900.34
2023-02-17T02:27:32.447Z,98894.28
2023-02-17T02:30:03.730Z,98895.03
2023-02-17T02:32:42.251Z,98897.38
2023-02-17T02:34:50.101Z,98894.69
2023-02-17T02:36:58.187Z,98892.16
2023-02-17T02:39:04.612Z,98898.22
2023-02-17T02:41:11.204Z,98889.28
2023-02-17T02:43:14.520Z,98894.34
2023-02-17T02:45:19.694Z,98890.13
2023-02-17T02:47:53.436Z,98891.63
2023-02-17T02:50:01.226Z,98891.47
2023-02-17T02:52:09.650Z,98882.97
2023-02-17T02:54:29.004Z,98887.41
2023-02-17T02:56:42.356Z,98887.34
2023-02-17T02:58:49.728Z,98883.81
2023-02-17T03:00:59.371Z,98876.97
2023-02-17T03:03:09.598Z,98872.78
2023-02-17T03:05:17.376Z,98865.06
2023-02-17T03:07:24.601Z,98862.25
2023-02-17T03:09:28.951Z,98867.41
2023-02-17T03:11:34.789Z,98861.41
2023-02-17T03:13:41.072Z,98858.06
2023-02-17T03:15:46.986Z,98860.56
2023-02-17T03:17:50.068Z,98864.88
2023-02-17T03:19:53.688Z,98848.25
2023-02-17T03:22:00.696Z,98847.53
2023-02-17T03:24:03.774Z,98850.03
2023-02-17T03:26:07.182Z,98855.91
2023-02-17T03:28:10.504Z,98865.34
2023-02-17T03:30:14.220Z,98856.88
2023-02-17T03:32:17.369Z,98855.00
2023-02-17T03:34:20.396Z,98850.69
2023-02-17T03:36:23.923Z,98855.00
2023-02-17T03:38:28.621Z,98853.13
2023-02-17T03:40:31.859Z,98856.69
2023-02-17T03:42:35.012Z,98850.59
2023-02-17T03:44:38.058Z,98858.44
2023-02-17T03:46:41.592Z,98860.31
2023-02-17T03:48:44.773Z,98852.75
2023-02-17T03:50:47.886Z,98856.88
2023-02-17T03:52:51.099Z,98861.31
2023-02-17T03:54:55.580Z,98857.97
2023-02-17T03:56:59.595Z,98858.88
2023-02-17T03:59:02.814Z,98855.63
2023-02-17T04:01:06.153Z,98858.97
2023-02-17T04:03:09.276Z,98852.00
2023-02-17T04:05:12.568Z,98852.84
2023-02-17T04:07:15.759Z,98859.66
2023-02-17T04:09:19.008Z,98860.31
2023-02-17T04:11:23.521Z,98863.56
2023-02-17T04:13:26.754Z,98872.00
2023-02-17T04:15:30.896Z,98872.75
2023-02-17T04:17:34.357Z,98866.00
2023-02-17T04:19:37.613Z,98865.19
2023-02-17T04:21:40.685Z,98874.09
2023-02-17T04:23:43.773Z,98866.44
2023-02-17T04:25:47.458Z,98873.63
2023-02-17T04:27:51.950Z,98874.63
2023-02-17T04:29:55.039Z,98875.31
2023-02-17T04:31:58.177Z,98871.09
2023-02-17T04:34:01.232Z,98870.38
2023-02-17T04:36:04.907Z,98871.47
2023-02-17T04:38:08.747Z,98862.72
2023-02-17T04:40:13.516Z,98863.63
2023-02-17T04:42:16.657Z,98862.72
2023-02-17T04:44:21.142Z,98868.75
2023-02-17T04:46:24.242Z,98867.94
2023-02-17T04:48:27.610Z,98868.66
2023-02-17T04:50:30.827Z,98862.72
2023-02-17T04:52:34.234Z,98859.31
2023-02-17T04:54:37.540Z,98863.63
2023-02-17T04:56:40.595Z,98853.84
2023-02-17T04:58:43.714Z,98859.84
2023-02-17T05:00:50.485Z,98864.69
2023-02-17T05:02:53.649Z,98864.88
2023-02-17T05:04:56.748Z,98863.19
2023-02-17T05:06:59.869Z,98866.72
2023-02-17T05:09:03.294Z,98858.97
2023-02-17T05:11:06.571Z,98866.63
2023-02-17T05:13:09.713Z,98865.88
2023-02-17T05:15:13.155Z,98865.06
2023-02-17T05:17:17.598Z,98858.13
2023-02-17T05:19:20.618Z,98859.56
2023-02-17T05:21:23.648Z,98858.72
2023-02-17T05:23:26.793Z,98858.06
2023-02-17T05:25:29.924Z,98863.19
2023-02-17T05:27:33.154Z,98871.75
2023-02-17T05:29:36.291Z,98871.84
2023-02-17T05:31:41.313Z,98871.94
2023-02-17T05:33:45.795Z,98872.53
2023-02-17T05:35:48.880Z,98877.66
2023-02-17T05:37:52.114Z,98873.28
2023-02-17T05:39:55.288Z,98877.41
2023-02-17T05:41:58.369Z,98885.06
2023-02-17T05:44:01.433Z,98882.44
2023-02-17T05:46:05.627Z,98883.00
2023-02-17T05:48:08.991Z,98885.53
2023-02-17T05:50:13.787Z,98889.91
2023-02-17T05:52:18.260Z,98889.06
2023-02-17T05:54:21.398Z,98881.13
2023-02-17T05:56:24.575Z,98892.22
2023-02-17T05:58:28.323Z,98889.91
2023-02-17T06:00:31.716Z,98900.38
2023-02-17T06:02:34.874Z,98896.72
2023-02-17T06:04:38.243Z,98898.50
2023-02-17T06:06:42.847Z,98894.28
2023-02-17T06:08:46.019Z,98890.09
2023-02-17T06:10:49.102Z,98894.53
2023-02-17T06:12:52.162Z,98905.75
2023-02-17T06:14:55.264Z,98895.50
2023-02-17T06:17:01.233Z,98903.34
2023-02-17T06:19:05.349Z,98904.25
2023-02-17T06:21:08.613Z,98906.13
2023-02-17T06:23:13.430Z,98905.25
2023-02-17T06:25:16.740Z,98905.25
2023-02-17T06:27:19.892Z,98902.72
2023-02-17T06:29:23.069Z,98906.28
2023-02-17T06:31:26.289Z,98907.94
2023-02-17T06:33:29.549Z,98909.66
2023-02-17T06:35:32.818Z,98904.59
2023-02-17T06:37:35.994Z,98906.56
2023-02-17T06:39:40.435Z,98904.03
2023-02-17T06:41:43.468Z,98909.34
2023-02-17T06:43:46.614Z,98915.38
2023-02-17T06:45:49.793Z,98909.16
2023-02-17T06:47:52.905Z,98910.75
2023-02-17T06:49:55.915Z,98916.91
2023-02-17T06:51:58.962Z,98910.81
2023-02-17T06:54:02.104Z,98907.28
2023-02-17T06:56:07.491Z,98914.31
2023-02-17T06:58:10.750Z,98911.78
2023-02-17T07:00:14.323Z,98912.44
2023-02-17T07:02:17.442Z,98908.91
2023-02-17T07:04:22.178Z,98913.19
2023-02-17T07:06:26.425Z,98913.19
2023-02-17T07:08:29.544Z,98913.09
2023-02-17T07:10:33.266Z,98913.59
2023-02-17T07:12:37.758Z,98916.78
2023-02-17T07:14:41.030Z,98914.00
2023-02-17T07:16:44.120Z,98918.06
2023-02-17T07:18:47.418Z,98926.69
2023-02-17T07:20:50.590Z,98921.28
2023-02-17T07:22:53.676Z,98924.63
2023-02-17T07:24:56.824Z,98928.34
2023-02-17T07:27:00.973Z,98927.25
2023-02-17T07:29:05.959Z,98929.13
2023-02-17T07:31:10.385Z,98926.00
2023-02-17T07:33:13.594Z,98926.94
2023-02-17T07:35:16.753Z,98925.25
2023-02-17T07:37:21.837Z,98929.66
2023-02-17T07:39:24.939Z,98932.09
2023-02-17T07:41:30.702Z,98925.75
2023-02-17T07:43:33.878Z,98932.66
2023-02-17T07:45:39.004Z,98939.56
2023-02-17T07:47:42.229Z,98944.63
2023-02-17T07:49:45.418Z,98942.84
2023-02-17T07:51:48.462Z,98950.50
2023-02-17T07:53:52.373Z,98956.50
2023-02-17T07:55:55.490Z,98953.06
2023-02-17T07:57:59.934Z,98953.88
2023-02-17T08:00:03.543Z,98950.44
2023-02-17T08:02:17.349Z,98951.50
2023-02-17T08:04:20.924Z,98948.31
2023-02-17T08:06:25.765Z,98949.34
2023-02-17T08:08:46.578Z,98945.72
2023-02-17T08:11:07.559Z,98945.53
2023-02-17T08:13:21.350Z,98948.31
2023-02-17T08:15:24.509Z,98941.97
2023-02-17T08:17:29.613Z,98946.59
2023-02-17T08:19:46.934Z,98944.47
2023-02-17T08:21:50.669Z,98946.97
2023-02-17T08:23:54.034Z,98947.59
2023-02-17T08:25:58.665Z,98949.75
2023-02-17T08:28:02.423Z,98959.19
2023-02-17T08:30:06.778Z,98964.25
2023-02-17T08:32:10.467Z,98953.69
2023-02-17T08:34:16.459Z,98963.72
2023-02-17T08:36:22.394Z,98961.78
2023-02-17T08:38:27.060Z,98963.16
2023-02-17T08:40:30.373Z,98965.59
2023-02-17T08:42:33.626Z,98960.94
2023-02-17T08:44:37.686Z,98961.22
2023-02-17T08:46:41.562Z,98965.50
2023-02-17T08:48:45.216Z,98966.16
2023-02-17T08:50:49.842Z,98961.91
2023-02-17T08:52:53.022Z,98962.06
2023-02-17T08:54:56.109Z,98969.72
2023-02-17T08:56:59.704Z,98971.22
2023-02-17T08:59:02.933Z,98964.16
2023-02-17T09:01:06.248Z,98966.84
2023-02-17T09:03:10.255Z,98966.66
2023-02-17T09:05:14.052Z,98966.56
2023-02-17T09:07:18.779Z,98972.81
2023-02-17T09:09:26.888Z,98976.06
2023-02-17T09:11:30.364Z,98973.47
2023-02-17T09:13:33.488Z,98974.25
2023-02-17T09:15:36.813Z,98971.44
2023-02-17T09:17:41.493Z,98978.50
2023-02-17T09:19:44.625Z,98980.28
2023-02-17T09:21:48.424Z,98986.94
2023-02-17T09:23:53.835Z,98987.50
2023-02-17T09:26:03.035Z,98989.75
2023-02-17T09:28:06.738Z,98996.50
2023-02-17T09:30:10.862Z,98996.09
2023-02-17T09:32:14.309Z,98994.81
2023-02-17T09:34:17.491Z,98992.84
2023-02-17T09:36:22.300Z,99000.41
2023-02-17T09:38:25.504Z,98998.38
2023-02-17T09:40:40.021Z,99001.72
2023-02-17T09:42:43.432Z,99003.88
2023-02-17T09:44:49.670Z,99010.88
2023-02-17T09:47:02.548Z,98996.88
2023-02-17T09:49:10.256Z,98996.50
2023-02-17T09:51:20.828Z,99003.31
2023-02-17T09:53:28.189Z,99001.16
2023-02-17T09:55:34.960Z,98994.06
2023-02-17T09:57:42.748Z,98988.09
2023-02-17T09:59:47.715Z,98994.06
2023-02-17T10:01:52.198Z,99004.53
2023-02-17T10:03:58.816Z,99009.38
2023-02-17T10:06:08.509Z,99004.59
2023-02-17T10:08:15.544Z,99005.47
2023-02-17T10:10:22.139Z,99012.16
2023-02-17T10:12:28.672Z,99012.75
2023-02-17T10:14:35.573Z,99016.84
2023-02-17T10:16:45.492Z,99016.56
2023-02-17T10:18:53.271Z,99022.38
2023-02-17T10:20:59.439Z,99015.09
2023-02-17T10:23:07.105Z,99010.69
2023-02-17T10:25:16.535Z,99003.56
2023-02-17T10:27:31.229Z,99003.38
2023-02-17T10:29:43.278Z,99006.56
2023-02-17T10:31:48.324Z,99007.84
2023-02-17T10:33:56.625Z,99000.56
2023-02-17T10:36:11.683Z,98999.09
2023-02-17T10:38:18.436Z,99008.69
2023-02-17T10:40:22.879Z,99017.91
2023-02-17T10:42:30.168Z,99007.25
2023-02-17T10:44:35.714Z,99019.84
2023-02-17T10:46:41.905Z,99011.56
2023-02-17T10:48:47.089Z,99008.94
2023-02-17T10:50:50.917Z,99008.13
2023-02-17T10:52:57.336Z,99008.13
2023-02-17T10:55:11.465Z,98995.22
2023-02-17T10:57:27.016Z,98998.03
2023-02-17T10:59:33.837Z,98995.00
2023-02-17T11:01:37.792Z,98992.09
2023-02-17T11:03:42.051Z,98997.53
2023-02-17T11:05:45.356Z,98995.22
2023-02-17T11:07:48.480Z,98999.28
2023-02-17T11:09:52.898Z,98991.81
2023-02-17T11:12:00.643Z,98993.19
2023-02-17T11:14:12.125Z,98991.59
2023-02-17T11:16:27.345Z,98984.88
2023-02-17T11:18:33.753Z,98986.16
2023-02-17T11:20:37.476Z,98972.28
2023-02-17T11:22:42.599Z,98977.63
2023-02-17T11:24:45.717Z,98982.13
2023-02-17T11:26:57.672Z,98989.25
2023-02-17T11:29:11.823Z,98989.38
2023-02-17T11:31:26.479Z,98993.03
2023-02-17T11:33:35.454Z,98992.41
2023-02-17T11:35:47.240Z,98991.56
2023-02-17T11:37:50.442Z,98986.53
2023-02-17T11:39:55.347Z,98990.28
2023-02-17T11:41:58.610Z,98985.97
2023-02-17T11:44:01.692Z,98981.91
2023-02-17T11:46:18.671Z,98989.88
2023-02-17T11:48:37.119Z,98988.59
2023-02-17T11:50:42.793Z,98990.69
2023-02-17T11:52:56.281Z,98989.38
2023-02-17T11:55:19.353Z,98985.41
2023-02-17T11:57:34.418Z,98987.06
2023-02-17T11:59:48.964Z,98984.25
2023-02-17T12:02:17.190Z,98990.44
2023-02-17T12:04:31.247Z,99001.13
2023-02-17T12:06:39.923Z,98998.63
2023-02-17T12:09:05.203Z,98996.09
2023-02-17T12:11:16.041Z,98994.31
2023-02-17T12:13:33.710Z,98991.69
2023-02-17T12:15:45.544Z,98989.16
2023-02-17T12:17:56.777Z,98987.56
2023-02-17T12:20:08.609Z,98985.25
2023-02-17T12:22:18.519Z,98991.44
2023-02-17T12:24:38.153Z,98984.53
2023-02-17T12:26:43.954Z,98986.31
2023-02-17T12:29:01.506Z,98988.94
2023-02-17T12:31:11.618Z,98978.34
2023-02-17T12:33:24.867Z,98979.09
2023-02-17T12:35:35.510Z,98975.44
2023-02-17T12:37:48.412Z,98974.25
2023-02-17T12:39:55.028Z,98972.41
2023-02-17T12:42:02.728Z,98964.44
2023-02-17T12:44:09.367Z,98968.72
2023-02-17T12:46:15.485Z,98961.53
2023-02-17T12:48:23.879Z,98959.63
2023-02-17T12:50:31.415Z,98956.91
2023-02-17T12:52:39.865Z,98960.34
2023-02-17T12:54:46.699Z,98962.16
2023-02-17T12:56:58.114Z,98953.66
2023-02-17T12:59:12.994Z,98964.16
2023-02-17T13:01:19.877Z,98953.56
2023-02-17T13:03:22.976Z,98957.94
2023-02-17T13:05:31.284Z,98956.28
2023-02-17T13:07:41.977Z,98956.28
2023-02-17T13:09:47.021Z,98952.78
2023-02-17T13:11:50.423Z,98948.53
2023-02-17T13:13:53.718Z,98943.28
2023-02-17T13:16:03.842Z,98949.25
2023-02-17T13:18:09.036Z,98944.00
2023-02-17T13:20:45.863Z,98947.34
2023-02-17T13:22:49.304Z,98952.59
2023-02-17T13:24:54.493Z,98956.06
2023-02-17T13:26:57.794Z,98955.88
2023-02-17T13:29:18.104Z,98944.44
2023-02-17T13:31:28.286Z,98947.66
2023-02-17T13:33:32.273Z,98942.22
2023-02-17T13:35:36.743Z,98943.72
2023-02-17T13:37:43.881Z,98939.09
2023-02-17T13:39:47.454Z,98942.78
2023-02-17T13:41:50.908Z,98947.47
2023-02-17T13:43:54.135Z,98943.09
2023-02-17T13:45:59.994Z,98944.00
2023-02-17T13:48:14.441Z,98948.44
2023-02-17T13:50:32.133Z,98939.59
2023-02-17T13:52:35.221Z,98935.00
2023-02-17T13:54:41.990Z,98929.66
2023-02-17T13:56:51.499Z,98915.19
2023-02-17T13:58:55.150Z,98929.88
2023-02-17T14:00:59.804Z,98921.06
2023-02-17T14:03:13.435Z,98920.00
2023-02-17T14:05:19.743Z,98918.75
2023-02-17T14:07:22.851Z,98915.69
2023-02-17T14:09:29.517Z,98909.09
2023-02-17T14:11:34.074Z,98914.34
2023-02-17T14:13:37.551Z,98911.72
2023-02-17T14:15:52.184Z,98910.75
2023-02-17T14:17:56.057Z,98905.22
2023-02-17T14:20:00.804Z,98906.78
2023-02-17T14:22:06.229Z,98903.97
2023-02-17T14:24:11.765Z,98905.66
2023-02-17T14:26:26.004Z,98908.28
2023-02-17T14:28:30.573Z,98906.38
2023-02-17T14:30:36.497Z,98909.72
2023-02-17T14:32:39.688Z,98908.28
2023-02-17T14:34:42.779Z,98905.22
2023-02-17T14:36:45.909Z,98904.28
2023-02-17T14:38:56.183Z,98897.69
2023-02-17T14:41:01.361Z,98896.53
2023-02-17T14:43:04.496Z,98881.22
2023-02-17T14:45:09.902Z,98892.34
2023-02-17T14:47:13.063Z,98892.13
2023-02-17T14:49:16.202Z,98896.22
2023-02-17T14:51:20.861Z,98890.66
2023-02-17T14:53:26.580Z,98893.69
2023-02-17T14:55:34.103Z,98890.63
2023-02-17T14:57:37.198Z,98882.53
2023-02-17T14:59:40.417Z,98880.53
2023-02-17T15:01:45.038Z,98882.22
2023-02-17T15:03:48.372Z,98875.38
2023-02-17T15:05:51.859Z,98886.53
2023-02-17T15:07:55.123Z,98877.56
2023-02-17T15:09:58.308Z,98886.16
2023-02-17T15:12:02.739Z,98875.44
2023-02-17T15:14:06.055Z,98872.59
2023-02-17T15:16:10.103Z,98867.25
2023-02-17T15:18:15.755Z,98871.44
2023-02-17T15:20:19.187Z,98856.41
2023-02-17T15:22:24.085Z,98862.19
2023-02-17T15:24:32.581Z,98868.06
2023-02-17T15:26:36.758Z,98860.91
2023-02-17T15:28:39.903Z,98866.69
2023-02-17T15:30:43.240Z,98857.72
2023-02-17T15:32:46.960Z,98861.91
2023-02-17T15:34:51.466Z,98868.66
2023-02-17T15:36:54.675Z,98865.88
2023-02-17T15:38:58.281Z,98861.69
2023-02-17T15:41:01.803Z,98851.31
2023-02-17T15:43:04.989Z,98845.69
2023-02-17T15:45:10.964Z,98849.44
2023-02-17T15:47:16.843Z,98841.50
2023-02-17T15:49:19.947Z,98840.88
2023-02-17T15:51:24.846Z,98844.97
2023-02-17T15:53:32.373Z,98843.88
2023-02-17T15:55:35.915Z,98836.63
2023-02-17T15:57:40.870Z,98839.03
2023-02-17T15:59:44.029Z,98848.28
2023-02-17T16:01:47.066Z,98848.47
2023-02-17T16:03:50.150Z,98846.50
2023-02-17T16:05:56.376Z,98856.47
2023-02-17T16:08:00.924Z,98856.16
2023-02-17T16:10:04.251Z,98854.69
2023-02-17T16:12:09.958Z,98849.75
2023-02-17T16:14:20.204Z,98859.81
2023-02-17T16:16:25.428Z,98851.59
2023-02-17T16:18:28.570Z,98852.13
2023-02-17T16:20:34.987Z,98860.38
2023-02-17T16:22:38.213Z,98878.84
2023-02-17T16:24:42.815Z,98880.00
2023-02-17T16:26:46.077Z,98877.78
2023-02-17T16:28:49.169Z,98876.00
2023-02-17T16:30:52.354Z,98897.16
2023-02-17T16:32:55.389Z,98880.59
2023-02-17T16:34:58.436Z,98885.75
2023-02-17T16:37:04.191Z,98892.66
2023-02-17T16:39:12.847Z,98886.16
2023-02-17T16:41:18.432Z,98889.75
2023-02-17T16:43:25.279Z,98894.13
2023-02-17T16:45:32.418Z,98899.94
2023-02-17T16:47:35.470Z,98901.47
2023-02-17T16:49:40.673Z,98909.25
2023-02-17T16:51:43.966Z,98907.34
2023-02-17T16:53:47.189Z,98896.88
2023-02-17T16:55:55.862Z,98898.56
2023-02-17T16:58:02.092Z,98911.84
2023-02-17T17:00:06.485Z,98909.75
2023-02-17T17:02:11.425Z,98923.13
2023-02-17T17:04:15.549Z,98923.22
2023-02-17T17:06:21.822Z,98921.22
2023-02-17T17:08:24.887Z,98921.22
2023-02-17T17:10:30.372Z,98917.47
2023-02-17T17:12:33.417Z,98911.56
2023-02-17T17:14:37.988Z,98913.56
2023-02-17T17:16:43.535Z,98907.16
2023-02-17T17:18:46.871Z,98907.16
2023-02-17T17:20:51.032Z,98900.66
2023-02-17T17:22:54.515Z,98902.53
2023-02-17T17:24:57.840Z,98896.84
2023-02-17T17:27:01.015Z,98896.03
2023-02-17T17:29:04.707Z,98904.91
2023-02-17T17:31:11.101Z,98898.53
2023-02-17T17:33:14.354Z,98904.59
2023-02-17T17:35:17.918Z,98890.06
2023-02-17T17:37:21.040Z,98893.69
2023-02-17T17:39:25.277Z,98898.63
2023-02-17T17:41:29.901Z,98899.56
2023-02-17T17:43:34.508Z,98892.97
2023-02-17T17:45:37.968Z,98895.69
2023-02-17T17:47:42.463Z,98895.78
2023-02-17T17:49:45.660Z,98897.44
2023-02-17T17:51:48.823Z,98910.44
2023-02-17T17:53:52.407Z,98917.38
2023-02-17T17:55:55.580Z,98907.63
2023-02-17T17:57:58.705Z,98909.22
2023-02-17T18:00:01.838Z,98918.88
2023-02-17T18:02:05.171Z,98926.63
2023-02-17T18:04:09.778Z,98929.78
2023-02-17T18:06:16.834Z,98933.97
2023-02-17T18:08:20.123Z,98939.94
2023-02-17T18:10:23.558Z,98943.81
2023-02-17T18:12:26.831Z,98953.91
2023-02-17T18:14:31.902Z,98959.81
2023-02-17T18:16:35.326Z,98962.97
2023-02-17T18:18:38.465Z,98961.81
2023-02-17T18:20:42.933Z,98973.75
2023-02-17T18:22:46.056Z,98972.63
2023-02-17T18:24:49.152Z,98980.28
2023-02-17T18:26:53.015Z,98980.09
2023-02-17T18:28:56.060Z,98985.03
2023-02-17T18:30:59.251Z,98991.84
2023-02-17T18:33:02.366Z,99001.50
2023-02-17T18:35:06.053Z,99002.88
2023-02-17T18:37:10.543Z,99012.19
2023-02-17T18:39:13.660Z,99019.34
2023-02-17T18:41:20.157Z,99016.72
2023-02-17T18:43:23.533Z,99018.31
2023-02-17T18:45:26.758Z,99028.78
2023-02-17T18:47:29.872Z,99028.03
2023-02-17T18:49:33.100Z,99024.47
2023-02-17T18:51:36.142Z,99029.63
2023-02-17T18:53:40.874Z,99032.25
2023-02-17T18:55:44.410Z,99042.44
2023-02-17T18:57:47.595Z,99049.56
2023-02-17T18:59:50.637Z,99047.16
2023-02-17T19:01:53.669Z,99053.44
2023-02-17T19:03:57.410Z,99042.50
2023-02-17T19:06:00.555Z,99044.66
2023-02-17T19:08:03.648Z,99068.50
2023-02-17T19:10:09.729Z,99064.47
2023-02-17T19:12:13.610Z,99066.47
2023-02-17T19:14:16.750Z,99065.50
2023-02-17T19:16:21.909Z,99066.69
2023-02-17T19:18:25.067Z,99075.78
2023-02-17T19:20:28.132Z,99075.13
2023-02-17T19:22:31.075Z,99072.50
2023-02-17T19:24:34.127Z,99081.31
2023-02-17T19:26:38.902Z,99090.09
2023-02-17T19:28:42.085Z,99097.34
2023-02-17T19:30:45.132Z,99095.00
2023-02-17T19:32:48.164Z,99092.56
2023-02-17T19:34:51.448Z,99106.41
2023-02-17T19:36:54.584Z,99103.97
2023-02-17T19:38:58.424Z,99102.22
2023-02-17T19:41:03.346Z,99089.13
2023-02-17T19:43:07.891Z,99096.13
2023-02-17T19:45:11.286Z,99103.69
2023-02-17T19:47:14.378Z,99102.69
2023-02-17T19:49:17.440Z,99101.84
2023-02-17T19:51:20.999Z,99091.63
2023-02-17T19:53:23.964Z,99083.91
2023-02-17T19:55:27.021Z,99089.84
2023-02-17T19:57:30.078Z,99096.13
2023-02-17T19:59:34.643Z,99098.84
2023-02-17T20:01:37.742Z,99100.03
2023-02-17T20:03:40.837Z,99100.97
2023-02-17T20:05:43.992Z,99091.63
2023-02-17T20:07:47.075Z,99090.78
2023-02-17T20:09:50.315Z,99085.81
2023-02-17T20:11:53.577Z,99085.81
2023-02-17T20:13:58.815Z,99085.91
2023-02-17T20:16:07.481Z,99086.97
2023-02-17T20:18:10.859Z,99092.94
2023-02-17T20:20:13.982Z,99087.50
2023-02-17T20:22:17.071Z,99088.34
2023-02-17T20:24:20.132Z,99092.38
2023-02-17T20:26:25.431Z,99100.41
2023-02-17T20:28:28.803Z,99106.19
2023-02-17T20:30:32.079Z,99099.13
2023-02-17T20:32:37.278Z,99105.56
2023-02-17T20:34:40.879Z,99113.88
2023-02-17T20:36:44.072Z,99099.78
2023-02-17T20:38:47.197Z,99085.44
2023-02-17T20:40:50.465Z,99091.47
2023-02-17T20:42:53.587Z,99094.81
2023-02-17T20:44:56.836Z,99097.53
2023-02-17T20:47:00.427Z,99098.34
2023-02-17T20:49:04.974Z,99093.88
2023-02-17T20:51:08.197Z,99093.03
2023-02-17T20:53:11.315Z,99107.72
2023-02-17T20:55:15.438Z,99107.53
2023-02-17T20:57:18.721Z,99092.47
2023-02-17T20:59:24.142Z,99094.16
2023-02-17T21:01:27.551Z,99100.03
2023-02-17T21:03:33.045Z,99098.13
2023-02-17T21:05:38.048Z,99099.88
2023-02-17T21:07:41.404Z,99097.50
2023-02-17T21:09:45.441Z,99093.88
2023-02-17T21:11:49.239Z,99095.50
2023-02-17T21:13:52.837Z,99092.03
2023-02-17T21:15:56.135Z,99093.63
2023-02-17T21:17:59.238Z,99088.22
2023-02-17T21:20:02.331Z,99091.66
2023-02-17T21:22:06.781Z,99083.63
2023-02-17T21:24:10.456Z,99088.66
2023-02-17T21:26:14.836Z,99082.50
2023-02-17T21:28:18.789Z,99092.88
2023-02-17T21:30:24.801Z,99101.38
2023-02-17T21:32:28.469Z,99098.56
2023-02-17T21:34:31.722Z,99093.34
2023-02-17T21:36:34.878Z,99093.25
2023-02-17T21:38:40.007Z,99091.53
2023-02-17T21:40:43.185Z,99089.59
2023-02-17T21:43:05.409Z,99086.88
2023-02-17T21:45:09.282Z,99094.66
2023-02-17T21:47:12.471Z,99095.47
2023-02-17T21:49:16.964Z,99098.19
2023-02-17T21:51:20.484Z,99098.94
2023-02-17T21:53:23.746Z,99101.53
2023-02-17T21:55:28.340Z,99106.59
2023-02-17T21:57:31.714Z,99100.44
2023-02-17T21:59:34.942Z,99097.25
2023-02-17T22:01:38.467Z,99095.38
2023-02-17T22:03:42.006Z,99094.47
2023-02-17T22:05:45.414Z,99090.88
2023-02-17T22:07:52.527Z,99095.94
2023-02-17T22:09:59.422Z,99099.69
2023-02-17T22:12:06.779Z,99095.19
2023-02-17T22:14:13.522Z,99095.94
2023-02-17T22:16:17.343Z,99101.16
2023-02-17T22:18:21.565Z,99090.06
2023-02-17T22:20:24.871Z,99099.88
2023-02-17T22:22:28.016Z,99103.44
2023-02-17T22:24:31.280Z,99092.94
2023-02-17T22:26:34.479Z,99101.09
2023-02-17T22:28:39.760Z,99093.34
2023-02-17T22:30:42.931Z,99094.25
2023-02-17T22:32:46.029Z,99096.13
2023-02-17T22:34:49.162Z,99092.69
2023-02-17T22:36:52.202Z,99094.81
2023-02-17T22:38:55.396Z,99097.63
2023-02-17T22:40:58.572Z,99104.56
2023-02-17T22:43:01.756Z,99098.41
2023-02-17T22:45:09.265Z,99094.09
2023-02-17T22:47:12.464Z,99083.81
2023-02-17T22:49:15.696Z,99087.25
2023-02-17T22:51:23.256Z,99082.59
2023-02-17T22:53:26.908Z,99075.84
2023-02-17T22:55:30.219Z,99081.91
2023-02-17T22:57:33.459Z,99082.34
2023-02-17T22:59:36.721Z,99076.97
2023-02-17T23:01:41.307Z,99076.88
2023-02-17T23:03:45.190Z,99082.34
2023-02-17T23:05:48.451Z,99075.03
2023-02-17T23:07:54.172Z,99068.00
2023-02-17T23:09:57.279Z,99063.69
2023-02-17T23:12:00.497Z,99066.88
2023-02-17T23:14:04.169Z,99061.75
2023-02-17T23:16:08.983Z,99064.34
2023-02-17T23:18:14.913Z,99066.88
2023-02-17T23:20:18.055Z,99054.06
2023-02-17T23:22:21.162Z,99056.50
2023-02-17T23:24:25.740Z,99051.38
2023-02-17T23:26:28.949Z,99053.03
2023-02-17T23:28:32.282Z,99052.38
2023-02-17T23:30:36.017Z,99049.66
2023-02-17T23:32:39.168Z,99046.22
2023-02-17T23:34:43.610Z,99052.94
2023-02-17T23:36:47.517Z,99060.78
2023-02-17T23:38:50.567Z,99054.81
2023-02-17T23:40:53.947Z,99057.16
2023-02-17T23:42:57.090Z,99065.66
2023-02-17T23:45:00.261Z,99064.72
2023-02-17T23:47:04.295Z,99054.16
2023-02-17T23:49:07.418Z,99062.84
2023-02-17T23:51:16.072Z,99051.91
2023-02-17T23:53:19.150Z,99065.66
2023-02-17T23:55:22.730Z,99055.16
2023-02-17T23:57:27.461Z,99041.97
2023-02-17T23:59:30.550Z,99039.25
